EZY74EH EGAA-EGGD
Flight info
| Callsign | EZY74EH |
|---|---|
| Flight time | 0h 43m |
| Altitude | 33000 |
| Route | LISBO DCT RINGA DCT BABGU DCT ETIGA DCT INKOB Q39 NOMSU UQ4 WAL N862 KARNO/N0448F320 DCT ALHUP DCT LUCSA/N0402F230 N862 WEVBE |
| Aircraft | A320/M-SDE2E3FGHIJ1RWXYZ/LB1 |
Departure
| Time | 2026-05-03 23:40 |
|---|---|
| Airport | Belfast International Airport (EGAA) |
Arrival
| Time | 2026-05-04 00:23 |
|---|---|
| Airport | Bristol Airport (EGGD) |
| Time | Latitude | Longitude | Altitude | Speed | Heading |
|---|---|---|---|---|---|
| 2026-05-03 23:20 | 54.66059 | -6.21791 | 275 ft | 0 kts | 285° |
| 2026-05-03 23:28 | 54.66054 | -6.21763 | 276 ft | 4 kts | 285° |
| 2026-05-03 23:28 | 54.66047 | -6.21718 | 274 ft | 4 kts | 285° |
| 2026-05-03 23:29 | 54.66038 | -6.21676 | 277 ft | 4 kts | 304° |
| 2026-05-03 23:29 | 54.66020 | -6.21642 | 277 ft | 4 kts | 327° |
| 2026-05-03 23:29 | 54.65996 | -6.21621 | 277 ft | 4 kts | 337° |
| 2026-05-03 23:29 | 54.65972 | -6.21600 | 277 ft | 4 kts | 322° |
| 2026-05-03 23:30 | 54.65955 | -6.21567 | 273 ft | 4 kts | 291° |
| 2026-05-03 23:30 | 54.65951 | -6.21523 | 274 ft | 4 kts | 264° |
| 2026-05-03 23:30 | 54.65953 | -6.21499 | 276 ft | 0 kts | 255° |
| 2026-05-03 23:34 | 54.65952 | -6.21502 | 275 ft | 3 kts | 254° |
| 2026-05-03 23:34 | 54.65913 | -6.21654 | 273 ft | 19 kts | 245° |
| 2026-05-03 23:34 | 54.65860 | -6.21847 | 273 ft | 17 kts | 244° |
| 2026-05-03 23:35 | 54.65807 | -6.22040 | 272 ft | 19 kts | 246° |
| 2026-05-03 23:35 | 54.65771 | -6.22251 | 272 ft | 17 kts | 262° |
| 2026-05-03 23:35 | 54.65757 | -6.22425 | 272 ft | 15 kts | 262° |
| 2026-05-03 23:35 | 54.65745 | -6.22604 | 272 ft | 16 kts | 267° |
| 2026-05-03 23:36 | 54.65745 | -6.22666 | 272 ft | 0 kts | 266° |
| 2026-05-03 23:37 | 54.65743 | -6.22698 | 272 ft | 12 kts | 264° |
| 2026-05-03 23:37 | 54.65774 | -6.22822 | 272 ft | 8 kts | 317° |
| 2026-05-03 23:38 | 54.65754 | -6.22839 | 274 ft | 4 kts | 163° |
| 2026-05-03 23:38 | 54.65754 | -6.22838 | 274 ft | 0 kts | 163° |
| 2026-05-03 23:39 | 54.65718 | -6.22820 | 276 ft | 18 kts | 163° |
| 2026-05-03 23:39 | 54.65372 | -6.22630 | 272 ft | 90 kts | 162° |
| 2026-05-03 23:39 | 54.64571 | -6.22179 | 273 ft | 149 kts | 162° |
| 2026-05-03 23:40 | 54.63519 | -6.21585 | 817 ft | 153 kts | 161° |
| 2026-05-03 23:40 | 54.62531 | -6.21032 | 1612 ft | 154 kts | 161° |
| 2026-05-03 23:40 | 54.61449 | -6.20430 | 2035 ft | 174 kts | 159° |
| 2026-05-03 23:40 | 54.60400 | -6.19224 | 2396 ft | 193 kts | 127° |
| 2026-05-03 23:41 | 54.59512 | -6.17308 | 2771 ft | 218 kts | 128° |
| 2026-05-03 23:41 | 54.58437 | -6.15242 | 3288 ft | 244 kts | 130° |
| 2026-05-03 23:41 | 54.57232 | -6.13017 | 3974 ft | 261 kts | 131° |
| 2026-05-03 23:41 | 54.55966 | -6.10703 | 4784 ft | 270 kts | 132° |
| 2026-05-03 23:42 | 54.54676 | -6.08327 | 5791 ft | 273 kts | 131° |
| 2026-05-03 23:42 | 54.53379 | -6.05919 | 6792 ft | 276 kts | 131° |
| 2026-05-03 23:42 | 54.52069 | -6.03475 | 7740 ft | 280 kts | 131° |
| 2026-05-03 23:42 | 54.50745 | -6.00993 | 8693 ft | 284 kts | 131° |
| 2026-05-03 23:43 | 54.49401 | -5.98468 | 9645 ft | 288 kts | 131° |
| 2026-05-03 23:43 | 54.48036 | -5.95899 | 10390 ft | 299 kts | 131° |
| 2026-05-03 23:43 | 54.46577 | -5.93157 | 10736 ft | 323 kts | 131° |
| 2026-05-03 23:43 | 54.45001 | -5.90201 | 11030 ft | 347 kts | 131° |
| 2026-05-03 23:44 | 54.43317 | -5.87042 | 11245 ft | 370 kts | 131° |
| 2026-05-03 23:44 | 54.41546 | -5.83727 | 11506 ft | 389 kts | 131° |
| 2026-05-03 23:44 | 54.39704 | -5.80285 | 12230 ft | 390 kts | 131° |
| 2026-05-03 23:44 | 54.37906 | -5.76939 | 13718 ft | 372 kts | 131° |
| 2026-05-03 23:45 | 54.36166 | -5.73702 | 14793 ft | 368 kts | 131° |
| 2026-05-03 23:45 | 54.34429 | -5.70474 | 15617 ft | 369 kts | 131° |
| 2026-05-03 23:45 | 54.32681 | -5.67231 | 16352 ft | 372 kts | 131° |
| 2026-05-03 23:45 | 54.30917 | -5.63963 | 17061 ft | 375 kts | 131° |
| 2026-05-03 23:46 | 54.29136 | -5.60666 | 17760 ft | 379 kts | 131° |
| 2026-05-03 23:46 | 54.27350 | -5.57318 | 18418 ft | 383 kts | 129° |
| 2026-05-03 23:46 | 54.25734 | -5.53675 | 18998 ft | 386 kts | 124° |
| 2026-05-03 23:46 | 54.24162 | -5.49937 | 19601 ft | 388 kts | 124° |
| 2026-05-03 23:47 | 54.22582 | -5.46179 | 20195 ft | 391 kts | 124° |
| 2026-05-03 23:47 | 54.20983 | -5.42393 | 20773 ft | 394 kts | 124° |
| 2026-05-03 23:47 | 54.19374 | -5.38585 | 21361 ft | 397 kts | 124° |
| 2026-05-03 23:47 | 54.17774 | -5.34801 | 21920 ft | 400 kts | 124° |
| 2026-05-03 23:48 | 54.16138 | -5.30937 | 22495 ft | 403 kts | 124° |
| 2026-05-03 23:48 | 54.14490 | -5.27048 | 23011 ft | 406 kts | 124° |
| 2026-05-03 23:48 | 54.12804 | -5.23077 | 23563 ft | 409 kts | 124° |
| 2026-05-03 23:48 | 54.11151 | -5.19199 | 24061 ft | 410 kts | 124° |
| 2026-05-03 23:49 | 54.09468 | -5.15259 | 24529 ft | 412 kts | 123° |
| 2026-05-03 23:49 | 54.07772 | -5.11302 | 24982 ft | 415 kts | 123° |
| 2026-05-03 23:49 | 54.06066 | -5.07328 | 25421 ft | 417 kts | 123° |
| 2026-05-03 23:49 | 54.04328 | -5.03284 | 25855 ft | 419 kts | 123° |
| 2026-05-03 23:50 | 54.02631 | -4.99345 | 26413 ft | 417 kts | 122° |
| 2026-05-03 23:50 | 54.01473 | -4.96663 | 26822 ft | 416 kts | 122° |
| 2026-05-03 23:50 | 53.99212 | -4.91429 | 27614 ft | 413 kts | 121° |
| 2026-05-03 23:50 | 53.97514 | -4.87499 | 28221 ft | 412 kts | 121° |
| 2026-05-03 23:51 | 53.95822 | -4.83585 | 28815 ft | 410 kts | 121° |
| 2026-05-03 23:51 | 53.94134 | -4.79689 | 29409 ft | 408 kts | 120° |
| 2026-05-03 23:51 | 53.92454 | -4.75814 | 30007 ft | 407 kts | 120° |
| 2026-05-03 23:51 | 53.90777 | -4.71961 | 30519 ft | 406 kts | 120° |
| 2026-05-03 23:52 | 53.89099 | -4.68107 | 30925 ft | 407 kts | 123° |
| 2026-05-03 23:52 | 53.87411 | -4.64237 | 31307 ft | 409 kts | 123° |
| 2026-05-03 23:52 | 53.85720 | -4.60365 | 31730 ft | 409 kts | 123° |
| 2026-05-03 23:52 | 53.84024 | -4.56497 | 32196 ft | 409 kts | 124° |
| 2026-05-03 23:53 | 53.82329 | -4.52637 | 32652 ft | 409 kts | 124° |
| 2026-05-03 23:53 | 53.80635 | -4.48777 | 33099 ft | 408 kts | 124° |
| 2026-05-03 23:53 | 53.78942 | -4.44922 | 33533 ft | 408 kts | 124° |
| 2026-05-03 23:53 | 53.77250 | -4.41070 | 33959 ft | 408 kts | 124° |
| 2026-05-03 23:54 | 53.75556 | -4.37221 | 34293 ft | 408 kts | 124° |
| 2026-05-03 23:54 | 53.73859 | -4.33375 | 34618 ft | 408 kts | 124° |
| 2026-05-03 23:54 | 53.72163 | -4.29535 | 34917 ft | 409 kts | 125° |
| 2026-05-03 23:54 | 53.70458 | -4.25681 | 35003 ft | 409 kts | 125° |
| 2026-05-03 23:55 | 53.67065 | -4.18044 | 35020 ft | 409 kts | 126° |
| 2026-05-03 23:55 | 53.63648 | -4.10387 | 35012 ft | 409 kts | 126° |
| 2026-05-03 23:56 | 53.60228 | -4.02726 | 35013 ft | 409 kts | 126° |
| 2026-05-03 23:56 | 53.56797 | -3.95058 | 35013 ft | 410 kts | 127° |
| 2026-05-03 23:57 | 53.53362 | -3.87408 | 35015 ft | 411 kts | 126° |
| 2026-05-03 23:57 | 53.49835 | -3.79566 | 35014 ft | 430 kts | 126° |
| 2026-05-03 23:58 | 53.46149 | -3.71416 | 35011 ft | 446 kts | 127° |
| 2026-05-03 23:58 | 53.42063 | -3.63510 | 35009 ft | 452 kts | 142° |
| 2026-05-03 23:59 | 53.39360 | -3.60858 | 35012 ft | 452 kts | 158° |
| 2026-05-03 23:59 | 53.36362 | -3.59193 | 35011 ft | 453 kts | 163° |
| 2026-05-03 23:59 | 53.30376 | -3.56176 | 35009 ft | 452 kts | 163° |
| 2026-05-04 00:00 | 53.24349 | -3.53209 | 35011 ft | 452 kts | 163° |
| 2026-05-04 00:00 | 53.18316 | -3.50228 | 34670 ft | 452 kts | 163° |
| 2026-05-04 00:01 | 53.15306 | -3.48729 | 34435 ft | 451 kts | 163° |
| 2026-05-04 00:01 | 53.12301 | -3.47227 | 34205 ft | 452 kts | 163° |
| 2026-05-04 00:01 | 53.09290 | -3.45724 | 33961 ft | 451 kts | 163° |
| 2026-05-04 00:01 | 53.06281 | -3.44227 | 33677 ft | 451 kts | 163° |
| 2026-05-04 00:02 | 53.03271 | -3.42740 | 33412 ft | 451 kts | 163° |
| 2026-05-04 00:02 | 53.00257 | -3.41260 | 33143 ft | 452 kts | 164° |
| 2026-05-04 00:02 | 52.97246 | -3.39781 | 32872 ft | 451 kts | 163° |
| 2026-05-04 00:02 | 52.94234 | -3.38301 | 32611 ft | 451 kts | 164° |
| 2026-05-04 00:03 | 52.91230 | -3.36822 | 32347 ft | 450 kts | 163° |
| 2026-05-04 00:03 | 52.88232 | -3.35348 | 32085 ft | 450 kts | 163° |
| 2026-05-04 00:03 | 52.85225 | -3.33896 | 31617 ft | 448 kts | 165° |
| 2026-05-04 00:03 | 52.82202 | -3.32596 | 31210 ft | 449 kts | 166° |
| 2026-05-04 00:04 | 52.79173 | -3.31429 | 30806 ft | 446 kts | 167° |
| 2026-05-04 00:04 | 52.76152 | -3.30342 | 30406 ft | 442 kts | 168° |
| 2026-05-04 00:04 | 52.73156 | -3.29285 | 30017 ft | 439 kts | 167° |
| 2026-05-04 00:04 | 52.70183 | -3.28228 | 29578 ft | 435 kts | 167° |
| 2026-05-04 00:05 | 52.68227 | -3.27520 | 29379 ft | 434 kts | 167° |
| 2026-05-04 00:05 | 52.65290 | -3.26435 | 29093 ft | 432 kts | 167° |
| 2026-05-04 00:05 | 52.62361 | -3.25335 | 28695 ft | 429 kts | 167° |
| 2026-05-04 00:05 | 52.59468 | -3.24236 | 28047 ft | 424 kts | 166° |
| 2026-05-04 00:06 | 52.55695 | -3.22797 | 27230 ft | 417 kts | 166° |
| 2026-05-04 00:06 | 52.52883 | -3.21727 | 26622 ft | 413 kts | 167° |
| 2026-05-04 00:06 | 52.50992 | -3.21012 | 26208 ft | 410 kts | 167° |
| 2026-05-04 00:06 | 52.48226 | -3.19975 | 25619 ft | 406 kts | 167° |
| 2026-05-04 00:07 | 52.45478 | -3.18953 | 25028 ft | 402 kts | 167° |
| 2026-05-04 00:07 | 52.42761 | -3.17945 | 24453 ft | 398 kts | 167° |
| 2026-05-04 00:07 | 52.40070 | -3.16944 | 23889 ft | 395 kts | 167° |
| 2026-05-04 00:07 | 52.37407 | -3.15950 | 23320 ft | 390 kts | 167° |
| 2026-05-04 00:08 | 52.34778 | -3.14969 | 22773 ft | 385 kts | 167° |
| 2026-05-04 00:08 | 52.32189 | -3.14000 | 22300 ft | 379 kts | 167° |
| 2026-05-04 00:08 | 52.29640 | -3.13047 | 21822 ft | 373 kts | 167° |
| 2026-05-04 00:08 | 52.27123 | -3.12110 | 21373 ft | 368 kts | 167° |
| 2026-05-04 00:09 | 52.24642 | -3.11194 | 20927 ft | 364 kts | 167° |
| 2026-05-04 00:09 | 52.22187 | -3.10290 | 20465 ft | 360 kts | 167° |
| 2026-05-04 00:09 | 52.19755 | -3.09395 | 20009 ft | 357 kts | 167° |
| 2026-05-04 00:09 | 52.17376 | -3.08516 | 19547 ft | 354 kts | 167° |
| 2026-05-04 00:10 | 52.14981 | -3.07628 | 19081 ft | 352 kts | 167° |
| 2026-05-04 00:10 | 52.12597 | -3.06746 | 18610 ft | 351 kts | 167° |
| 2026-05-04 00:10 | 52.10218 | -3.05869 | 18102 ft | 350 kts | 167° |
| 2026-05-04 00:10 | 52.07852 | -3.05000 | 17591 ft | 348 kts | 167° |
| 2026-05-04 00:11 | 52.05498 | -3.04139 | 17110 ft | 345 kts | 167° |
| 2026-05-04 00:11 | 52.03160 | -3.03286 | 16623 ft | 343 kts | 167° |
| 2026-05-04 00:11 | 52.00833 | -3.02437 | 16150 ft | 341 kts | 167° |
| 2026-05-04 00:11 | 51.98526 | -3.01595 | 15677 ft | 340 kts | 167° |
| 2026-05-04 00:12 | 51.96221 | -3.00753 | 15208 ft | 338 kts | 168° |
| 2026-05-04 00:12 | 51.93900 | -3.00205 | 14640 ft | 341 kts | 176° |
| 2026-05-04 00:12 | 51.91504 | -2.99950 | 13895 ft | 348 kts | 176° |
| 2026-05-04 00:12 | 51.89070 | -2.99707 | 13101 ft | 353 kts | 176° |
| 2026-05-04 00:13 | 51.86612 | -2.99470 | 12364 ft | 355 kts | 176° |
| 2026-05-04 00:13 | 51.84147 | -2.99231 | 11730 ft | 354 kts | 176° |
| 2026-05-04 00:13 | 51.81682 | -2.98991 | 10994 ft | 355 kts | 176° |
| 2026-05-04 00:13 | 51.79246 | -2.98752 | 10684 ft | 344 kts | 176° |
| 2026-05-04 00:14 | 51.76916 | -2.98518 | 10560 ft | 328 kts | 176° |
| 2026-05-04 00:14 | 51.74687 | -2.98293 | 10435 ft | 314 kts | 176° |
| 2026-05-04 00:14 | 51.72550 | -2.98079 | 10314 ft | 302 kts | 176° |
| 2026-05-04 00:14 | 51.70492 | -2.97875 | 10147 ft | 292 kts | 176° |
| 2026-05-04 00:15 | 51.68477 | -2.97676 | 9825 ft | 289 kts | 176° |
| 2026-05-04 00:15 | 51.66507 | -2.97480 | 9418 ft | 285 kts | 176° |
| 2026-05-04 00:15 | 51.64534 | -2.97281 | 8857 ft | 283 kts | 176° |
| 2026-05-04 00:15 | 51.62577 | -2.97084 | 8304 ft | 281 kts | 176° |
| 2026-05-04 00:16 | 51.60630 | -2.96892 | 7754 ft | 278 kts | 176° |
| 2026-05-04 00:16 | 51.58704 | -2.96702 | 7205 ft | 276 kts | 176° |
| 2026-05-04 00:16 | 51.56796 | -2.96514 | 6667 ft | 274 kts | 176° |
| 2026-05-04 00:16 | 51.54904 | -2.96327 | 6104 ft | 271 kts | 176° |
| 2026-05-04 00:17 | 51.53028 | -2.96139 | 5542 ft | 269 kts | 176° |
| 2026-05-04 00:17 | 51.51166 | -2.95952 | 4977 ft | 267 kts | 176° |
| 2026-05-04 00:17 | 51.49314 | -2.95768 | 4292 ft | 268 kts | 176° |
| 2026-05-04 00:17 | 51.47477 | -2.95587 | 3903 ft | 256 kts | 176° |
| 2026-05-04 00:18 | 51.45783 | -2.95420 | 3754 ft | 233 kts | 176° |
| 2026-05-04 00:18 | 51.44237 | -2.95269 | 3654 ft | 213 kts | 176° |
| 2026-05-04 00:18 | 51.42814 | -2.95132 | 3568 ft | 196 kts | 176° |
| 2026-05-04 00:18 | 51.41528 | -2.95005 | 3486 ft | 176 kts | 175° |
| 2026-05-04 00:19 | 51.40364 | -2.94887 | 3398 ft | 160 kts | 175° |
| 2026-05-04 00:19 | 51.39291 | -2.94776 | 3328 ft | 152 kts | 174° |
| 2026-05-04 00:19 | 51.38326 | -2.94230 | 3269 ft | 148 kts | 144° |
| 2026-05-04 00:19 | 51.37671 | -2.93008 | 3172 ft | 146 kts | 116° |
| 2026-05-04 00:20 | 51.37484 | -2.91403 | 2923 ft | 150 kts | 87° |
| 2026-05-04 00:20 | 51.37554 | -2.89731 | 2710 ft | 151 kts | 87° |
| 2026-05-04 00:20 | 51.37623 | -2.88047 | 2503 ft | 152 kts | 87° |
| 2026-05-04 00:20 | 51.37692 | -2.86359 | 2285 ft | 153 kts | 87° |
| 2026-05-04 00:21 | 51.37760 | -2.84677 | 2085 ft | 149 kts | 87° |
| 2026-05-04 00:21 | 51.37825 | -2.83075 | 1891 ft | 141 kts | 88° |
| 2026-05-04 00:21 | 51.37887 | -2.81529 | 1699 ft | 138 kts | 88° |
| 2026-05-04 00:21 | 51.37947 | -2.80002 | 1544 ft | 137 kts | 88° |
| 2026-05-04 00:22 | 51.38006 | -2.78480 | 1305 ft | 137 kts | 88° |
| 2026-05-04 00:22 | 51.38066 | -2.76973 | 1100 ft | 135 kts | 87° |
| 2026-05-04 00:22 | 51.38116 | -2.75470 | 958 ft | 136 kts | 87° |
| 2026-05-04 00:22 | 51.38184 | -2.73975 | 739 ft | 133 kts | 86° |
| 2026-05-04 00:23 | 51.38245 | -2.72526 | 633 ft | 121 kts | 87° |
| 2026-05-04 00:23 | 51.38285 | -2.71496 | 604 ft | 51 kts | 86° |
| 2026-05-04 00:23 | 51.38300 | -2.71033 | 603 ft | 37 kts | 85° |
| 2026-05-04 00:23 | 51.38309 | -2.70838 | 615 ft | 11 kts | 84° |
| 2026-05-04 00:24 | 51.38345 | -2.70759 | 613 ft | 8 kts | 23° |
| 2026-05-04 00:24 | 51.38405 | -2.70725 | 623 ft | 12 kts | 20° |
| 2026-05-04 00:24 | 51.38449 | -2.70700 | 617 ft | 4 kts | 18° |
| 2026-05-04 00:24 | 51.38473 | -2.70764 | 617 ft | 2 kts | 269° |
| 2026-05-04 00:25 | 51.38472 | -2.70778 | 614 ft | 0 kts | 268° |
| 2026-05-04 00:25 | 51.38471 | -2.70829 | 613 ft | 11 kts | 266° |
| 2026-05-04 00:25 | 51.38466 | -2.70938 | 619 ft | 9 kts | 266° |
| 2026-05-04 00:25 | 51.38462 | -2.71030 | 615 ft | 8 kts | 265° |
| 2026-05-04 00:26 | 51.38488 | -2.71073 | 613 ft | 3 kts | 353° |
| 2026-05-04 00:26 | 51.38505 | -2.71076 | 614 ft | 4 kts | 355° |
| 2026-05-04 00:26 | 51.38509 | -2.71077 | 614 ft | 1 kts | 355° |
| 2026-05-04 00:26 | 51.38523 | -2.71078 | 612 ft | 0 kts | 356° |